createdAt,value
2018-12-07T00:00:11.604Z,1020.29
2018-12-07T00:01:11.547Z,1020.27
2018-12-07T00:02:11.645Z,1020.27
2018-12-07T00:03:11.572Z,1020.31
2018-12-07T00:04:11.633Z,1020.27
2018-12-07T00:05:11.572Z,1020.26
2018-12-07T00:06:11.580Z,1020.22
2018-12-07T00:07:11.652Z,1020.23
2018-12-07T00:08:11.786Z,1020.18
2018-12-07T00:09:11.664Z,1020.2
2018-12-07T00:10:11.596Z,1020.2
2018-12-07T00:11:11.607Z,1020.17
2018-12-07T00:12:11.612Z,1020.18
2018-12-07T00:13:11.645Z,1020.13
2018-12-07T00:14:13.409Z,1020.13
2018-12-07T00:15:11.550Z,1020.08
2018-12-07T00:16:11.697Z,1020.06
2018-12-07T00:17:11.834Z,1020.05
2018-12-07T00:18:11.832Z,1020.08
2018-12-07T00:19:11.622Z,1020.05
2018-12-07T00:20:11.642Z,1020.06
2018-12-07T00:21:11.653Z,1020.04
2018-12-07T00:22:11.708Z,1020
2018-12-07T00:23:11.673Z,1019.99
2018-12-07T00:24:11.694Z,1020
2018-12-07T00:25:11.736Z,1019.99
2018-12-07T00:26:11.737Z,1019.97
2018-12-07T00:27:11.677Z,1020.02
2018-12-07T00:28:11.573Z,1020
2018-12-07T00:29:11.700Z,1019.99
2018-12-07T00:30:11.589Z,1020.05
2018-12-07T00:31:11.742Z,1020.01
2018-12-07T00:32:11.581Z,1019.98
2018-12-07T00:33:11.663Z,1019.98
2018-12-07T00:34:11.655Z,1020
2018-12-07T00:35:11.794Z,1019.89
2018-12-07T00:36:11.595Z,1019.96
2018-12-07T00:37:11.947Z,1019.95
2018-12-07T00:38:11.561Z,1019.89
2018-12-07T00:39:11.566Z,1019.84
2018-12-07T00:40:11.736Z,1019.87
2018-12-07T00:41:11.679Z,1019.88
2018-12-07T00:42:12.005Z,1019.91
2018-12-07T00:43:11.697Z,1019.85
2018-12-07T00:44:11.749Z,1019.95
2018-12-07T00:45:11.679Z,1019.9
2018-12-07T00:46:11.576Z,1019.87
2018-12-07T00:47:11.826Z,1019.85
2018-12-07T00:48:11.755Z,1019.79
2018-12-07T00:49:11.586Z,1019.85
2018-12-07T00:50:11.593Z,1019.88
2018-12-07T00:51:11.551Z,1019.84
2018-12-07T00:52:11.646Z,1019.86
2018-12-07T00:53:11.525Z,1019.83
2018-12-07T00:54:11.891Z,1019.79
2018-12-07T00:55:11.722Z,1019.78
2018-12-07T00:56:11.714Z,1019.78
2018-12-07T00:57:11.722Z,1019.81
2018-12-07T00:58:11.963Z,1019.9
2018-12-07T00:59:11.744Z,1019.76
2018-12-07T01:00:11.594Z,1019.82
2018-12-07T01:01:11.516Z,1019.78
2018-12-07T01:02:11.692Z,1019.78
2018-12-07T01:03:11.567Z,1019.81
2018-12-07T01:04:11.590Z,1019.86
2018-12-07T01:05:11.526Z,1019.83
2018-12-07T01:06:11.736Z,1019.87
2018-12-07T01:07:11.540Z,1019.85
2018-12-07T01:08:11.863Z,1019.84
2018-12-07T01:09:11.936Z,1019.85
2018-12-07T01:10:11.685Z,1019.82
2018-12-07T01:11:11.721Z,1019.81
2018-12-07T01:12:11.763Z,1019.84
2018-12-07T01:13:11.560Z,1019.82
2018-12-07T01:14:11.692Z,1019.79
2018-12-07T01:15:11.877Z,1019.79
2018-12-07T01:16:11.538Z,1019.72
2018-12-07T01:17:11.556Z,1019.77
2018-12-07T01:18:11.590Z,1019.77
2018-12-07T01:19:11.708Z,1019.72
2018-12-07T01:20:11.636Z,1019.74
2018-12-07T01:21:11.694Z,1019.79
2018-12-07T01:22:11.700Z,1019.73
2018-12-07T01:23:11.755Z,1019.74
2018-12-07T01:24:11.725Z,1019.73
2018-12-07T01:25:11.703Z,1019.78
2018-12-07T01:26:11.633Z,1019.72
2018-12-07T01:27:11.657Z,1019.74
2018-12-07T01:28:11.664Z,1019.66
2018-12-07T01:29:11.569Z,1019.69
2018-12-07T01:30:11.539Z,1019.71
2018-12-07T01:31:11.651Z,1019.71
2018-12-07T01:32:11.526Z,1019.65
2018-12-07T01:33:11.529Z,1019.67
2018-12-07T01:34:11.457Z,1019.64
2018-12-07T01:35:11.510Z,1019.64
2018-12-07T01:36:11.513Z,1019.65
2018-12-07T01:37:11.554Z,1019.62
2018-12-07T01:38:11.626Z,1019.69
2018-12-07T01:39:11.492Z,1019.68
2018-12-07T01:40:11.490Z,1019.63
2018-12-07T01:41:11.464Z,1019.62
2018-12-07T01:42:11.488Z,1019.55
2018-12-07T01:43:11.523Z,1019.55
2018-12-07T01:44:11.690Z,1019.56
2018-12-07T01:45:11.511Z,1019.55
2018-12-07T01:46:11.468Z,1019.5
2018-12-07T01:47:11.487Z,1019.46
2018-12-07T01:48:11.510Z,1019.45
2018-12-07T01:49:11.455Z,1019.46
2018-12-07T01:50:11.590Z,1019.48
2018-12-07T01:51:11.469Z,1019.44
2018-12-07T01:52:11.490Z,1019.36
2018-12-07T01:53:11.976Z,1019.4
2018-12-07T01:54:11.622Z,1019.4
2018-12-07T01:55:11.460Z,1019.42
2018-12-07T01:56:11.648Z,1019.4
2018-12-07T01:57:11.793Z,1019.39
2018-12-07T01:58:11.498Z,1019.34
2018-12-07T01:59:11.561Z,1019.44
2018-12-07T02:00:11.514Z,1019.34
2018-12-07T02:01:11.684Z,1019.34
2018-12-07T02:02:11.575Z,1019.33
2018-12-07T02:03:11.460Z,1019.34
2018-12-07T02:04:11.435Z,1019.36
2018-12-07T02:05:11.612Z,1019.39
2018-12-07T02:06:11.535Z,1019.41
2018-12-07T02:07:11.481Z,1019.33
2018-12-07T02:08:11.605Z,1019.3
2018-12-07T02:09:11.509Z,1019.26
2018-12-07T02:10:11.503Z,1019.29
2018-12-07T02:11:11.427Z,1019.27
2018-12-07T02:12:11.424Z,1019.23
2018-12-07T02:13:11.421Z,1019.2
2018-12-07T02:14:11.786Z,1019.25
2018-12-07T02:15:11.540Z,1019.23
2018-12-07T02:16:11.496Z,1019.24
2018-12-07T02:17:11.449Z,1019.25
2018-12-07T02:18:11.552Z,1019.24
2018-12-07T02:19:11.437Z,1019.22
2018-12-07T02:20:11.480Z,1019.25
2018-12-07T02:21:11.492Z,1019.21
2018-12-07T02:22:11.624Z,1019.22
2018-12-07T02:23:11.632Z,1019.23
2018-12-07T02:24:11.372Z,1019.18
2018-12-07T02:25:11.794Z,1019.15
2018-12-07T02:26:11.435Z,1019.18
2018-12-07T02:27:11.617Z,1019.11
2018-12-07T02:28:11.477Z,1019.16
2018-12-07T02:29:11.382Z,1019.12
2018-12-07T02:30:11.659Z,1019.07
2018-12-07T02:31:11.419Z,1019.07
2018-12-07T02:32:11.490Z,1019
2018-12-07T02:33:11.439Z,1019.06
2018-12-07T02:34:11.666Z,1019.04
2018-12-07T02:35:11.398Z,1019.03
2018-12-07T02:36:11.401Z,1018.96
2018-12-07T02:37:11.569Z,1019.04
2018-12-07T02:38:11.756Z,1019.03
2018-12-07T02:39:11.580Z,1018.94
2018-12-07T02:40:11.567Z,1018.92
2018-12-07T02:41:11.610Z,1018.9
2018-12-07T02:42:11.421Z,1018.91
2018-12-07T02:43:11.404Z,1018.83
2018-12-07T02:44:11.586Z,1018.82
2018-12-07T02:45:11.392Z,1018.82
2018-12-07T02:46:11.442Z,1018.85
2018-12-07T02:47:11.447Z,1018.82
2018-12-07T02:48:11.761Z,1018.8
2018-12-07T02:49:11.422Z,1018.75
2018-12-07T02:50:11.372Z,1018.75
2018-12-07T02:51:11.559Z,1018.68
2018-12-07T02:52:11.578Z,1018.68
2018-12-07T02:53:11.750Z,1018.7
2018-12-07T02:54:12.011Z,1018.64
2018-12-07T02:55:11.395Z,1018.75
2018-12-07T02:56:11.388Z,1018.64
2018-12-07T02:57:11.785Z,1018.65
2018-12-07T02:58:11.384Z,1018.67
2018-12-07T02:59:11.485Z,1018.63
2018-12-07T03:00:11.358Z,1018.62
2018-12-07T03:01:11.451Z,1018.6
2018-12-07T03:02:11.781Z,1018.6
2018-12-07T03:03:11.452Z,1018.61
2018-12-07T03:04:11.466Z,1018.61
2018-12-07T03:05:11.357Z,1018.65
2018-12-07T03:06:11.382Z,1018.63
2018-12-07T03:07:11.441Z,1018.6
2018-12-07T03:08:11.623Z,1018.65
2018-12-07T03:09:11.426Z,1018.61
2018-12-07T03:10:11.635Z,1018.6
2018-12-07T03:11:11.363Z,1018.56
2018-12-07T03:12:11.420Z,1018.61
2018-12-07T03:13:11.485Z,1018.47
2018-12-07T03:14:11.361Z,1018.5
2018-12-07T03:15:11.363Z,1018.51
2018-12-07T03:16:11.385Z,1018.44
2018-12-07T03:17:11.485Z,1018.39
2018-12-07T03:18:11.347Z,1018.45
2018-12-07T03:19:11.342Z,1018.36
2018-12-07T03:20:11.392Z,1018.35
2018-12-07T03:21:11.374Z,1018.37
2018-12-07T03:22:11.342Z,1018.34
2018-12-07T03:23:11.363Z,1018.33
2018-12-07T03:24:11.343Z,1018.3
2018-12-07T03:25:11.444Z,1018.3
2018-12-07T03:26:11.369Z,1018.32
2018-12-07T03:27:11.556Z,1018.33
2018-12-07T03:28:11.381Z,1018.38
2018-12-07T03:29:11.366Z,1018.33
2018-12-07T03:30:11.349Z,1018.34
2018-12-07T03:31:11.441Z,1018.35
2018-12-07T03:32:11.682Z,1018.31
2018-12-07T03:33:11.504Z,1018.26
2018-12-07T03:34:11.327Z,1018.29
2018-12-07T03:35:11.369Z,1018.28
2018-12-07T03:36:11.599Z,1018.26
2018-12-07T03:37:11.316Z,1018.27
2018-12-07T03:38:11.388Z,1018.21
2018-12-07T03:39:11.305Z,1018.19
2018-12-07T03:40:11.518Z,1018.2
2018-12-07T03:41:11.620Z,1018.18
2018-12-07T03:42:11.477Z,1018.2
2018-12-07T03:43:11.384Z,1018.15
2018-12-07T03:44:11.487Z,1018.23
2018-12-07T03:45:11.494Z,1018.25
2018-12-07T03:46:11.316Z,1018.26
2018-12-07T03:47:11.360Z,1018.23
2018-12-07T03:48:11.331Z,1018.29
2018-12-07T03:49:11.338Z,1018.24
2018-12-07T03:50:11.406Z,1018.26
2018-12-07T03:51:11.518Z,1018.27
2018-12-07T03:52:11.485Z,1018.22
2018-12-07T03:53:11.359Z,1018.26
2018-12-07T03:54:11.339Z,1018.24
2018-12-07T03:55:11.342Z,1018.25
2018-12-07T03:56:11.391Z,1018.22
2018-12-07T03:57:11.687Z,1018.26
2018-12-07T03:58:11.398Z,1018.19
2018-12-07T03:59:11.372Z,1018.22
2018-12-07T04:00:11.316Z,1018.21
2018-12-07T04:01:11.462Z,1018.15
2018-12-07T04:02:11.359Z,1018.12
2018-12-07T04:03:11.376Z,1018.08
2018-12-07T04:04:11.452Z,1018.09
2018-12-07T04:05:11.367Z,1018.11
2018-12-07T04:06:11.290Z,1018.13
2018-12-07T04:07:11.383Z,1018.17
2018-12-07T04:08:11.403Z,1018.11
2018-12-07T04:09:11.502Z,1018.08
2018-12-07T04:10:11.570Z,1018.13
2018-12-07T04:11:11.388Z,1018.12
2018-12-07T04:12:11.327Z,1018.06
2018-12-07T04:13:11.303Z,1017.95
2018-12-07T04:14:11.615Z,1018.06
2018-12-07T04:15:11.357Z,1018.03
2018-12-07T04:16:11.288Z,1018.02
2018-12-07T04:17:11.294Z,1017.98
2018-12-07T04:18:11.302Z,1018.04
2018-12-07T04:19:11.309Z,1018.04
2018-12-07T04:20:11.278Z,1018
2018-12-07T04:21:11.258Z,1018.01
2018-12-07T04:22:11.489Z,1017.98
2018-12-07T04:23:11.450Z,1017.95
2018-12-07T04:24:11.475Z,1017.96
2018-12-07T04:25:11.276Z,1017.92
2018-12-07T04:26:11.369Z,1017.97
2018-12-07T04:27:11.440Z,1017.95
2018-12-07T04:28:11.367Z,1017.88
2018-12-07T04:29:12.108Z,1017.89
2018-12-07T04:30:11.294Z,1017.96
2018-12-07T04:31:11.301Z,1018
2018-12-07T04:32:11.470Z,1017.89
2018-12-07T04:33:11.371Z,1017.96
2018-12-07T04:34:11.427Z,1017.96
2018-12-07T04:35:11.384Z,1017.88
2018-12-07T04:36:11.323Z,1017.87
2018-12-07T04:37:11.465Z,1017.85
2018-12-07T04:38:11.370Z,1017.9
2018-12-07T04:39:11.417Z,1017.91
2018-12-07T04:40:11.316Z,1017.86
2018-12-07T04:41:11.391Z,1017.86
2018-12-07T04:42:11.444Z,1017.83
2018-12-07T04:43:11.742Z,1017.79
2018-12-07T04:44:11.517Z,1017.87
2018-12-07T04:45:11.425Z,1017.86
2018-12-07T04:46:11.507Z,1017.81
2018-12-07T04:47:11.413Z,1017.83
2018-12-07T04:48:11.295Z,1017.84
2018-12-07T04:49:11.325Z,1017.78
2018-12-07T04:50:11.297Z,1017.77
2018-12-07T04:51:11.360Z,1017.68
2018-12-07T04:52:11.235Z,1017.74
2018-12-07T04:53:11.239Z,1017.74
2018-12-07T04:54:11.412Z,1017.73
2018-12-07T04:55:11.269Z,1017.71
2018-12-07T04:56:11.251Z,1017.74
2018-12-07T04:57:11.265Z,1017.73
2018-12-07T04:58:11.405Z,1017.75
2018-12-07T04:59:11.550Z,1017.74
2018-12-07T05:00:11.322Z,1017.75
2018-12-07T05:01:11.258Z,1017.74
2018-12-07T05:02:11.343Z,1017.76
2018-12-07T05:03:11.353Z,1017.8
2018-12-07T05:04:11.219Z,1017.71
2018-12-07T05:05:11.373Z,1017.79
2018-12-07T05:06:11.265Z,1017.78
2018-12-07T05:07:11.275Z,1017.74
2018-12-07T05:08:11.254Z,1017.78
2018-12-07T05:09:11.401Z,1017.79
2018-12-07T05:10:11.242Z,1017.75
2018-12-07T05:11:11.276Z,1017.75
2018-12-07T05:12:11.257Z,1017.75
2018-12-07T05:13:11.207Z,1017.77
2018-12-07T05:14:11.776Z,1017.74
2018-12-07T05:15:11.234Z,1017.78
2018-12-07T05:16:11.371Z,1017.78
2018-12-07T05:17:11.345Z,1017.7
2018-12-07T05:18:11.344Z,1017.73
2018-12-07T05:19:11.773Z,1017.76
2018-12-07T05:20:11.370Z,1017.77
2018-12-07T05:21:11.362Z,1017.76
2018-12-07T05:22:11.356Z,1017.83
2018-12-07T05:23:11.438Z,1017.8
2018-12-07T05:24:11.266Z,1017.84
2018-12-07T05:25:11.266Z,1017.85
2018-12-07T05:26:11.339Z,1017.82
2018-12-07T05:27:11.243Z,1017.85
2018-12-07T05:28:11.220Z,1017.84
2018-12-07T05:29:11.240Z,1017.82
2018-12-07T05:30:11.588Z,1017.84
2018-12-07T05:31:12.057Z,1017.79
2018-12-07T05:32:11.216Z,1017.79
2018-12-07T05:33:11.221Z,1017.89
2018-12-07T05:34:11.578Z,1017.8
2018-12-07T05:35:11.549Z,1017.77
2018-12-07T05:36:11.405Z,1017.75
2018-12-07T05:37:11.592Z,1017.7
2018-12-07T05:38:11.397Z,1017.71
2018-12-07T05:39:12.010Z,1017.72
2018-12-07T05:40:11.312Z,1017.74
2018-12-07T05:41:11.358Z,1017.68
2018-12-07T05:42:11.179Z,1017.73
2018-12-07T05:43:11.512Z,1017.64
2018-12-07T05:44:11.321Z,1017.64
2018-12-07T05:45:11.419Z,1017.61
2018-12-07T05:46:11.595Z,1017.59
2018-12-07T05:47:11.256Z,1017.67
2018-12-07T05:48:11.204Z,1017.68
2018-12-07T05:49:12.016Z,1017.73
2018-12-07T05:50:11.346Z,1017.69
2018-12-07T05:51:11.221Z,1017.65
2018-12-07T05:52:11.386Z,1017.65
2018-12-07T05:53:11.344Z,1017.62
2018-12-07T05:54:11.166Z,1017.6
2018-12-07T05:55:11.174Z,1017.6
2018-12-07T05:56:11.241Z,1017.59
2018-12-07T05:57:11.229Z,1017.59
2018-12-07T05:58:11.194Z,1017.61
2018-12-07T05:59:11.303Z,1017.61
2018-12-07T06:00:11.560Z,1017.56
2018-12-07T06:01:11.186Z,1017.59
2018-12-07T06:02:11.361Z,1017.57
2018-12-07T06:03:11.239Z,1017.56
2018-12-07T06:04:11.278Z,1017.56
2018-12-07T06:05:11.321Z,1017.58
2018-12-07T06:06:11.275Z,1017.55
2018-12-07T06:07:11.315Z,1017.59
2018-12-07T06:08:11.278Z,1017.53
2018-12-07T06:09:11.347Z,1017.52
2018-12-07T06:10:11.217Z,1017.47
2018-12-07T06:11:11.308Z,1017.51
2018-12-07T06:12:11.188Z,1017.5
2018-12-07T06:13:11.171Z,1017.43
2018-12-07T06:14:11.232Z,1017.45
2018-12-07T06:15:11.614Z,1017.43
2018-12-07T06:16:11.507Z,1017.46
2018-12-07T06:17:11.426Z,1017.46
2018-12-07T06:18:11.232Z,1017.38
2018-12-07T06:19:11.437Z,1017.33
2018-12-07T06:20:11.150Z,1017.3
2018-12-07T06:21:11.283Z,1017.26
2018-12-07T06:22:11.303Z,1017.19
2018-12-07T06:23:11.120Z,1017.21
2018-12-07T06:24:11.202Z,1017.1
2018-12-07T06:25:11.238Z,1017.12
2018-12-07T06:26:11.156Z,1017.07
2018-12-07T06:27:11.130Z,1017.12
2018-12-07T06:28:11.173Z,1017.09
2018-12-07T06:29:11.484Z,1017.1
2018-12-07T06:30:11.227Z,1017.09
2018-12-07T06:31:12.216Z,1017.05
2018-12-07T06:32:11.725Z,1017.07
2018-12-07T06:33:11.128Z,1017.04
2018-12-07T06:34:11.430Z,1017.08
2018-12-07T06:35:11.102Z,1017.08
2018-12-07T06:36:11.118Z,1017.07
2018-12-07T06:37:11.120Z,1017.06
2018-12-07T06:38:11.136Z,1017.06
2018-12-07T06:39:11.334Z,1017.09
2018-12-07T06:40:11.119Z,1017.1
2018-12-07T06:41:11.120Z,1017.04
2018-12-07T06:42:11.221Z,1017.09
2018-12-07T06:43:11.411Z,1017.01
2018-12-07T06:44:11.181Z,1017.06
2018-12-07T06:45:11.115Z,1017.09
2018-12-07T06:46:11.251Z,1017.07
2018-12-07T06:47:11.265Z,1017.04
2018-12-07T06:48:11.308Z,1017.08
2018-12-07T06:49:11.306Z,1017.06
2018-12-07T06:50:11.171Z,1017.07
2018-12-07T06:51:11.327Z,1017.05
2018-12-07T06:52:11.097Z,1017.07
2018-12-07T06:53:11.233Z,1017.05
2018-12-07T06:54:11.269Z,1017.03
2018-12-07T06:55:11.094Z,1017.06
2018-12-07T06:56:11.138Z,1017.04
2018-12-07T06:57:11.074Z,1017.01
2018-12-07T06:58:11.139Z,1017
2018-12-07T06:59:11.185Z,1017.01
2018-12-07T07:00:11.108Z,1016.99
2018-12-07T07:01:11.290Z,1017.04
2018-12-07T07:02:11.475Z,1016.97
2018-12-07T07:03:11.203Z,1016.96
2018-12-07T07:04:11.078Z,1016.96
2018-12-07T07:05:11.317Z,1016.95
2018-12-07T07:06:11.307Z,1016.97
2018-12-07T07:07:11.282Z,1016.88
2018-12-07T07:08:11.116Z,1016.93
2018-12-07T07:09:11.191Z,1016.91
2018-12-07T07:10:11.061Z,1016.92
2018-12-07T07:11:11.215Z,1016.96
2018-12-07T07:12:11.177Z,1016.92
2018-12-07T07:13:11.271Z,1016.92
2018-12-07T07:14:11.248Z,1016.89
2018-12-07T07:15:11.089Z,1016.97
2018-12-07T07:16:11.116Z,1016.92
2018-12-07T07:17:11.461Z,1016.91
2018-12-07T07:18:11.172Z,1016.94
2018-12-07T07:19:11.106Z,1016.91
2018-12-07T07:20:11.179Z,1016.88
2018-12-07T07:21:11.884Z,1016.81
2018-12-07T07:22:11.061Z,1016.82
2018-12-07T07:23:11.072Z,1016.85
2018-12-07T07:24:11.248Z,1016.77
2018-12-07T07:25:11.131Z,1016.81
2018-12-07T07:26:11.449Z,1016.8
2018-12-07T07:27:11.081Z,1016.76
2018-12-07T07:28:11.050Z,1016.72
2018-12-07T07:29:11.242Z,1016.7
2018-12-07T07:30:11.088Z,1016.71
2018-12-07T07:31:11.906Z,1016.69
2018-12-07T07:32:11.078Z,1016.61
2018-12-07T07:33:11.140Z,1016.62
2018-12-07T07:34:11.298Z,1016.66
2018-12-07T07:35:11.227Z,1016.62
2018-12-07T07:36:11.403Z,1016.64
2018-12-07T07:37:11.132Z,1016.6
2018-12-07T07:38:11.071Z,1016.55
2018-12-07T07:39:11.167Z,1016.56
2018-12-07T07:40:11.070Z,1016.61
2018-12-07T07:41:11.231Z,1016.59
2018-12-07T07:42:11.029Z,1016.59
2018-12-07T07:43:11.111Z,1016.58
2018-12-07T07:44:11.057Z,1016.57
2018-12-07T07:45:11.128Z,1016.53
2018-12-07T07:46:11.037Z,1016.53
2018-12-07T07:47:11.054Z,1016.52
2018-12-07T07:48:11.050Z,1016.52
2018-12-07T07:49:11.601Z,1016.45
2018-12-07T07:50:11.066Z,1016.42
2018-12-07T07:51:11.216Z,1016.43
2018-12-07T07:52:11.212Z,1016.48
2018-12-07T07:53:11.322Z,1016.45
2018-12-07T07:54:11.228Z,1016.43
2018-12-07T07:55:11.199Z,1016.44
2018-12-07T07:56:15.769Z,1016.42
2018-12-07T07:57:11.044Z,1016.38
2018-12-07T07:58:11.156Z,1016.4
2018-12-07T07:59:11.006Z,1016.35
2018-12-07T08:00:11.038Z,1016.35
2018-12-07T08:01:11.349Z,1016.34
2018-12-07T08:02:11.027Z,1016.34
2018-12-07T08:03:11.034Z,1016.34
2018-12-07T08:04:11.007Z,1016.28
2018-12-07T08:05:11.030Z,1016.24
2018-12-07T08:06:11.067Z,1016.27
2018-12-07T08:07:11.159Z,1016.22
2018-12-07T08:08:10.990Z,1016.22
2018-12-07T08:09:11.051Z,1016.23
2018-12-07T08:10:11.002Z,1016.24
2018-12-07T08:11:11.067Z,1016.21
2018-12-07T08:12:11.081Z,1016.15
2018-12-07T08:13:11.023Z,1016.14
2018-12-07T08:14:11.031Z,1016.11
2018-12-07T08:15:11.044Z,1016.12
2018-12-07T08:16:11.092Z,1016.04
2018-12-07T08:17:11.011Z,1016.06
2018-12-07T08:18:11.004Z,1016.09
2018-12-07T08:19:10.994Z,1015.99
2018-12-07T08:20:11.127Z,1016
2018-12-07T08:21:11.033Z,1016
2018-12-07T08:22:11.013Z,1015.92
2018-12-07T08:23:15.132Z,1015.94
2018-12-07T08:24:11.231Z,1015.93
2018-12-07T08:25:11.062Z,1016.01
2018-12-07T08:26:11.325Z,1015.95
2018-12-07T08:27:11.120Z,1015.98
2018-12-07T08:28:11.001Z,1015.89
2018-12-07T08:29:11.100Z,1015.85
2018-12-07T08:30:11.376Z,1015.9
2018-12-07T08:31:11.838Z,1015.91
2018-12-07T08:32:11.136Z,1015.91
2018-12-07T08:33:11.020Z,1015.89
2018-12-07T08:34:11.233Z,1015.8
2018-12-07T08:35:11.835Z,1015.81
2018-12-07T08:36:11.362Z,1015.87
2018-12-07T08:37:11.273Z,1015.86
2018-12-07T08:38:11.334Z,1015.9
2018-12-07T08:39:10.973Z,1015.84
2018-12-07T08:40:11.009Z,1015.84
2018-12-07T08:41:11.090Z,1015.84
2018-12-07T08:42:11.412Z,1015.89
2018-12-07T08:43:11.109Z,1015.87
2018-12-07T08:44:11.170Z,1015.86
2018-12-07T08:45:10.981Z,1015.84
2018-12-07T08:46:11.203Z,1015.92
2018-12-07T08:47:11.291Z,1015.89
2018-12-07T08:48:11.230Z,1015.87
2018-12-07T08:49:11.101Z,1015.86
2018-12-07T08:50:11.245Z,1015.88
2018-12-07T08:51:10.978Z,1015.87
2018-12-07T08:52:11.055Z,1015.87
2018-12-07T08:53:11.441Z,1015.89
2018-12-07T08:54:11.081Z,1015.89
2018-12-07T08:55:11.016Z,1015.9
2018-12-07T08:56:11.020Z,1015.85
2018-12-07T08:57:11.067Z,1015.85
2018-12-07T08:58:11.041Z,1015.82
2018-12-07T08:59:11.236Z,1015.85
2018-12-07T09:00:10.952Z,1015.75
2018-12-07T09:01:11.111Z,1015.84
2018-12-07T09:02:11.247Z,1015.83
2018-12-07T09:03:11.174Z,1015.8
2018-12-07T09:04:11.071Z,1015.8
2018-12-07T09:05:11.064Z,1015.8
2018-12-07T09:06:11.248Z,1015.82
2018-12-07T09:07:11.027Z,1015.83
2018-12-07T09:08:15.642Z,1015.87
2018-12-07T09:09:11.112Z,1015.83
2018-12-07T09:10:10.949Z,1015.81
2018-12-07T09:11:10.939Z,1015.85
2018-12-07T09:12:11.344Z,1015.78
2018-12-07T09:13:11.247Z,1015.77
2018-12-07T09:14:11.060Z,1015.74
2018-12-07T09:15:11.025Z,1015.69
2018-12-07T09:16:11.280Z,1015.64
2018-12-07T09:17:11.020Z,1015.65
2018-12-07T09:18:11.721Z,1015.68
2018-12-07T09:19:10.960Z,1015.63
2018-12-07T09:20:10.944Z,1015.6
2018-12-07T09:21:11.050Z,1015.57
2018-12-07T09:22:11.176Z,1015.54
2018-12-07T09:23:11.195Z,1015.58
2018-12-07T09:24:11.276Z,1015.55
2018-12-07T09:25:11.127Z,1015.63
2018-12-07T09:26:10.959Z,1015.61
2018-12-07T09:27:10.924Z,1015.59
2018-12-07T09:28:11.079Z,1015.56
2018-12-07T09:29:11.415Z,1015.46
2018-12-07T09:30:11.039Z,1015.5
2018-12-07T09:31:11.131Z,1015.52
2018-12-07T09:32:11.025Z,1015.5
2018-12-07T09:33:11.016Z,1015.51
2018-12-07T09:34:11.224Z,1015.49
2018-12-07T09:35:11.054Z,1015.54
2018-12-07T09:36:11.150Z,1015.53
2018-12-07T09:37:11.142Z,1015.52
2018-12-07T09:38:13.473Z,1015.48
2018-12-07T09:39:11.156Z,1015.45
2018-12-07T09:40:10.960Z,1015.5
2018-12-07T09:41:10.943Z,1015.52
2018-12-07T09:42:10.923Z,1015.47
2018-12-07T09:43:10.972Z,1015.53
2018-12-07T09:44:10.960Z,1015.53
2018-12-07T09:45:11.027Z,1015.45
2018-12-07T09:46:10.950Z,1015.44
2018-12-07T09:47:11.083Z,1015.44
2018-12-07T09:48:10.988Z,1015.43
2018-12-07T09:49:10.986Z,1015.5
2018-12-07T09:50:10.901Z,1015.39
2018-12-07T09:51:11.183Z,1015.42
2018-12-07T09:52:10.941Z,1015.35
2018-12-07T09:53:10.946Z,1015.37
2018-12-07T09:54:10.930Z,1015.36
2018-12-07T09:55:10.925Z,1015.35
2018-12-07T09:56:11.062Z,1015.34
2018-12-07T09:57:11.221Z,1015.43
2018-12-07T09:58:10.927Z,1015.37
2018-12-07T09:59:10.912Z,1015.32
2018-12-07T10:00:11.233Z,1015.32
2018-12-07T10:01:11.022Z,1015.28
2018-12-07T10:02:11.172Z,1015.36
2018-12-07T10:03:11.168Z,1015.34
2018-12-07T10:04:11.020Z,1015.37
2018-12-07T10:05:11.259Z,1015.32
2018-12-07T10:06:11.087Z,1015.28
2018-12-07T10:07:11.090Z,1015.33
2018-12-07T10:08:10.942Z,1015.23
2018-12-07T10:09:11.688Z,1015.2
2018-12-07T10:10:10.991Z,1015.18
2018-12-07T10:11:10.993Z,1015.14
2018-12-07T10:12:11.049Z,1015.1
2018-12-07T10:13:11.008Z,1015.17
2018-12-07T10:14:11.087Z,1015.14
2018-12-07T10:15:10.956Z,1015.13
2018-12-07T10:16:11.061Z,1015.08
2018-12-07T10:17:11.093Z,1015.13
2018-12-07T10:18:11.062Z,1015.08
2018-12-07T10:19:11.036Z,1015.01
2018-12-07T10:20:11.084Z,1015.04
2018-12-07T10:21:11.047Z,1015.06
2018-12-07T10:22:11.349Z,1015.05
2018-12-07T10:23:10.962Z,1014.94
2018-12-07T10:24:10.864Z,1014.94
2018-12-07T10:25:10.942Z,1014.88
2018-12-07T10:26:11.018Z,1014.88
2018-12-07T10:27:10.928Z,1014.87
2018-12-07T10:28:11.031Z,1014.85
2018-12-07T10:29:10.961Z,1014.79
2018-12-07T10:30:10.907Z,1014.84
2018-12-07T10:31:11.107Z,1014.81
2018-12-07T10:32:10.857Z,1014.78
2018-12-07T10:33:11.050Z,1014.77
2018-12-07T10:34:10.974Z,1014.78
2018-12-07T10:35:10.903Z,1014.73
2018-12-07T10:36:10.989Z,1014.72
2018-12-07T10:37:11.096Z,1014.67
2018-12-07T10:38:11.009Z,1014.7
2018-12-07T10:39:10.929Z,1014.67
2018-12-07T10:40:11.014Z,1014.62
2018-12-07T10:41:10.986Z,1014.62
2018-12-07T10:42:11.018Z,1014.61
2018-12-07T10:43:11.148Z,1014.58
2018-12-07T10:44:10.860Z,1014.59
2018-12-07T10:45:10.977Z,1014.48
2018-12-07T10:46:10.948Z,1014.53
2018-12-07T10:47:11.113Z,1014.46
2018-12-07T10:48:10.951Z,1014.48
2018-12-07T10:49:11.222Z,1014.38
2018-12-07T10:50:10.826Z,1014.42
2018-12-07T10:51:10.872Z,1014.41
2018-12-07T10:52:10.980Z,1014.36
2018-12-07T10:53:10.927Z,1014.3
2018-12-07T10:54:11.109Z,1014.29
2018-12-07T10:55:11.015Z,1014.21
2018-12-07T10:56:11.152Z,1014.26
2018-12-07T10:57:10.955Z,1014.3
2018-12-07T10:58:11.085Z,1014.2
2018-12-07T10:59:10.809Z,1014.15
2018-12-07T11:00:10.820Z,1014.12
2018-12-07T11:01:10.849Z,1014.09
2018-12-07T11:02:11.035Z,1014.1
2018-12-07T11:03:10.831Z,1014.06
2018-12-07T11:04:10.804Z,1014.06
2018-12-07T11:05:10.975Z,1014.08
2018-12-07T11:06:11.040Z,1014.08
2018-12-07T11:07:10.919Z,1014.05
2018-12-07T11:08:11.130Z,1014.06
2018-12-07T11:09:10.882Z,1013.95
2018-12-07T11:10:10.863Z,1013.95
2018-12-07T11:11:10.876Z,1013.88
2018-12-07T11:12:10.816Z,1013.84
2018-12-07T11:13:11.065Z,1013.9
2018-12-07T11:14:10.969Z,1013.82
2018-12-07T11:15:11.039Z,1013.8
2018-12-07T11:16:11.045Z,1013.8
2018-12-07T11:17:10.822Z,1013.74
2018-12-07T11:18:10.832Z,1013.55
2018-12-07T11:19:10.801Z,1013.62
2018-12-07T11:20:10.847Z,1013.64
2018-12-07T11:21:11.080Z,1013.6
2018-12-07T11:22:10.936Z,1013.67
2018-12-07T11:23:11.012Z,1013.56
2018-12-07T11:24:10.774Z,1013.58
2018-12-07T11:25:10.842Z,1013.58
2018-12-07T11:26:10.787Z,1013.63
2018-12-07T11:27:10.791Z,1013.63
2018-12-07T11:28:10.770Z,1013.69
2018-12-07T11:29:10.787Z,1013.64
2018-12-07T11:30:10.781Z,1013.58
2018-12-07T11:31:10.798Z,1013.63
2018-12-07T11:32:10.903Z,1013.6
2018-12-07T11:33:10.751Z,1013.52
2018-12-07T11:34:10.779Z,1013.73
2018-12-07T11:35:10.756Z,1013.47
2018-12-07T11:36:11.058Z,1013.59
2018-12-07T11:37:10.844Z,1013.42
2018-12-07T11:38:11.028Z,1013.56
2018-12-07T11:39:12.801Z,1013.4
2018-12-07T11:40:11.130Z,1013.45
2018-12-07T11:41:11.009Z,1013.5
2018-12-07T11:42:11.078Z,1013.4
2018-12-07T11:43:10.963Z,1013.32
2018-12-07T11:44:10.904Z,1013.41
2018-12-07T11:45:10.860Z,1013.31
2018-12-07T11:46:10.797Z,1013.39
2018-12-07T11:47:10.948Z,1013.33
2018-12-07T11:48:10.946Z,1013.38
2018-12-07T11:49:11.003Z,1013.37
2018-12-07T11:50:10.887Z,1013.32
2018-12-07T11:51:10.799Z,1013.24
2018-12-07T11:52:10.938Z,1013.35
2018-12-07T11:53:11.032Z,1013.25
2018-12-07T11:54:11.194Z,1013.25
2018-12-07T11:55:10.942Z,1013.06
2018-12-07T11:56:10.971Z,1013.05
2018-12-07T11:57:10.959Z,1013.01
2018-12-07T11:58:11.118Z,1013
2018-12-07T11:59:11.261Z,1012.92
2018-12-07T12:00:10.828Z,1012.92
2018-12-07T12:01:10.881Z,1012.88
2018-12-07T12:02:11.037Z,1012.84
2018-12-07T12:03:11.004Z,1012.85
2018-12-07T12:04:11.110Z,1012.82
2018-12-07T12:05:11.066Z,1012.79
2018-12-07T12:06:10.939Z,1012.77
2018-12-07T12:07:10.866Z,1012.67
2018-12-07T12:08:10.911Z,1012.65